MPTO/PTY METAR and TAF weather

Enter ICAO airport designator
Station Type Date Time Source
MPTO METAR 2022/11/30 17:00 UTC NOAA

MPTO 301700Z 00000KT 9000 VCSH SCT017 BKN080 27/23 Q1012 TEMPO 6000 RA NOSIG


Station Type Date Time Source
MPTO Decoded METAR 2022/11/30 17:00 UTC NOAA

Tocumen, Panama (MPTO) 09-03N 079-22W
Nov 30, 2022 - 12:00 PM EST / 2022.11.30 1700 UTC
Wind: Calm:0
Visibility: 5 mile(s):0
Sky conditions: mostly cloudy
Weather: showers in the vicinity
Temperature: 80 F (27 C)
Dew Point: 73 F (23 C)
Relative Humidity: 78%
Pressure (altimeter): 29.88 in. Hg (1012 hPa)
ob: MPTO 301700Z 00000KT 9000 VCSH SCT017 BKN080 27/23 Q1012 TEMPO 6000 RA NOSIG
cycle: 17

Station Type Date Time Source
MPTO TAF 2022/11/30 18:03 UTC NOAA

TAF MPTO 301700Z 3018/0124 24007KT 9999 SCT018 BKN090 PROB40 3020/3024 18007KT 6000 TSRA SCT015CB BKN080
TEMPO 0100/0104 9999 SCT016 BKN080
TEMPO 0104/0108 VRB02KT

Example: see airport list